createdAt,value
2019-06-20T00:01:51.464Z,77.30
2019-06-20T00:04:19.921Z,77.80
2019-06-20T00:06:48.352Z,77.90
2019-06-20T00:09:17.076Z,78.60
2019-06-20T00:11:45.565Z,78.60
2019-06-20T00:14:14.281Z,77.90
2019-06-20T00:16:42.957Z,77.40
2019-06-20T00:19:11.407Z,77.20
2019-06-20T00:21:39.847Z,77.20
2019-06-20T00:24:08.333Z,76.80
2019-06-20T00:26:36.776Z,77.10
2019-06-20T00:29:05.478Z,77.10
2019-06-20T00:31:34.254Z,77.50
2019-06-20T00:34:02.707Z,77.10
2019-06-20T00:36:31.140Z,77.00
2019-06-20T00:38:59.613Z,77.10
2019-06-20T00:41:28.056Z,77.00
2019-06-20T00:43:56.509Z,77.40
2019-06-20T00:46:24.941Z,77.50
2019-06-20T00:48:53.638Z,77.80
2019-06-20T00:51:22.060Z,77.70
2019-06-20T00:53:50.512Z,77.60
2019-06-20T00:56:18.941Z,77.20
2019-06-20T00:58:47.421Z,77.50
2019-06-20T01:01:15.905Z,78.20
2019-06-20T01:03:44.622Z,78.10
2019-06-20T01:06:13.322Z,78.40
2019-06-20T01:08:42.025Z,78.90
2019-06-20T01:11:10.476Z,79.00
2019-06-20T01:13:39.002Z,79.20
2019-06-20T01:16:07.434Z,78.90
2019-06-20T01:18:36.750Z,79.50
2019-06-20T01:21:05.218Z,80.10
2019-06-20T01:23:34.409Z,81.00
2019-06-20T01:26:03.017Z,81.20
2019-06-20T01:28:31.552Z,81.80
2019-06-20T01:31:00.304Z,82.60
2019-06-20T01:33:28.773Z,83.80
2019-06-20T01:35:57.472Z,83.50
2019-06-20T01:38:26.270Z,83.20
2019-06-20T01:40:54.715Z,82.70
2019-06-20T01:43:23.165Z,83.00
2019-06-20T01:45:51.617Z,83.60
2019-06-20T01:48:20.062Z,83.00
2019-06-20T01:50:48.511Z,81.90
2019-06-20T01:53:16.937Z,81.40
2019-06-20T01:55:45.654Z,81.10
2019-06-20T01:58:14.340Z,80.00
2019-06-20T02:00:50.168Z,78.40
2019-06-20T02:03:19.225Z,75.30
2019-06-20T02:05:47.802Z,75.60
2019-06-20T02:08:16.233Z,78.70
2019-06-20T02:10:44.714Z,79.40
2019-06-20T02:13:13.205Z,79.80
2019-06-20T02:15:41.727Z,78.90
2019-06-20T02:18:10.161Z,78.30
2019-06-20T02:20:56.872Z,79.00
2019-06-20T02:23:25.321Z,77.40
2019-06-20T02:25:54.022Z,77.30
2019-06-20T02:28:23.498Z,76.90
2019-06-20T02:30:51.962Z,77.10
2019-06-20T02:33:20.477Z,76.70
2019-06-20T02:35:49.264Z,77.00
2019-06-20T02:38:17.692Z,77.50
2019-06-20T02:40:46.429Z,78.40
2019-06-20T02:43:14.864Z,78.70
2019-06-20T02:45:43.393Z,79.50
2019-06-20T02:48:12.225Z,78.90
2019-06-20T02:50:40.753Z,78.80
2019-06-20T02:53:09.256Z,79.20
2019-06-20T02:55:37.695Z,79.80
2019-06-20T02:58:06.148Z,80.10
2019-06-20T03:00:40.798Z,79.90
2019-06-20T03:03:09.506Z,78.60
2019-06-20T03:05:38.822Z,78.40
2019-06-20T03:08:07.330Z,77.50
2019-06-20T03:10:36.022Z,77.70
2019-06-20T03:13:04.459Z,78.60
2019-06-20T03:15:33.263Z,78.00
2019-06-20T03:18:02.003Z,78.00
2019-06-20T03:20:30.471Z,78.00
2019-06-20T03:22:58.904Z,78.20
2019-06-20T03:25:27.711Z,78.40
2019-06-20T03:27:56.401Z,78.80
2019-06-20T03:30:25.309Z,79.20
2019-06-20T03:32:54.067Z,79.00
2019-06-20T03:35:22.792Z,80.00
2019-06-20T03:37:51.505Z,80.40
2019-06-20T03:40:20.208Z,80.90
2019-06-20T03:42:48.920Z,81.30
2019-06-20T03:45:17.633Z,81.10
2019-06-20T03:47:46.085Z,80.20
2019-06-20T03:50:15.031Z,80.70
2019-06-20T03:52:43.743Z,81.90
2019-06-20T03:55:12.799Z,82.60
2019-06-20T03:57:41.532Z,82.60
2019-06-20T04:00:11.401Z,82.20
2019-06-20T04:02:39.853Z,81.70
2019-06-20T04:05:08.937Z,81.30
2019-06-20T04:07:37.395Z,80.90
2019-06-20T04:10:06.469Z,80.80
2019-06-20T04:12:35.176Z,80.30
2019-06-20T04:15:17.873Z,79.10
2019-06-20T04:17:34.628Z,79.80
2019-06-20T04:20:05.127Z,79.40
2019-06-20T04:22:33.569Z,79.10
2019-06-20T04:25:02.276Z,79.00
2019-06-20T04:27:30.729Z,78.50
2019-06-20T04:29:59.239Z,78.40
2019-06-20T04:32:27.957Z,78.00
2019-06-20T04:34:56.414Z,77.30
2019-06-20T04:37:24.858Z,76.80
2019-06-20T04:39:53.291Z,75.20
2019-06-20T04:42:21.726Z,76.00
2019-06-20T04:44:51.728Z,75.90
2019-06-20T04:47:20.441Z,75.30
2019-06-20T04:49:48.882Z,75.50
2019-06-20T04:52:17.345Z,76.60
2019-06-20T04:54:45.778Z,75.60
2019-06-20T04:57:14.225Z,74.50
2019-06-20T04:59:42.922Z,74.10
2019-06-20T05:02:14.779Z,74.30
2019-06-20T05:04:41.540Z,74.10
2019-06-20T05:07:15.714Z,73.70
2019-06-20T05:09:43.628Z,73.80
2019-06-20T05:12:12.065Z,72.40
2019-06-20T05:14:40.515Z,72.30
2019-06-20T05:17:08.967Z,72.00
2019-06-20T05:19:37.404Z,71.10
2019-06-20T05:22:05.878Z,70.90
2019-06-20T05:24:34.301Z,69.80
2019-06-20T05:27:03.003Z,67.80
2019-06-20T05:29:31.436Z,68.90
2019-06-20T05:31:59.899Z,67.80
2019-06-20T05:34:28.674Z,67.40
2019-06-20T05:36:57.376Z,67.30
2019-06-20T05:39:25.830Z,64.60
2019-06-20T05:41:54.329Z,64.40
2019-06-20T05:44:22.786Z,64.40
2019-06-20T05:46:51.478Z,65.50
2019-06-20T05:49:20.187Z,64.60
2019-06-20T05:51:48.613Z,62.70
2019-06-20T05:54:17.322Z,62.20
2019-06-20T05:56:45.753Z,61.30
2019-06-20T05:59:14.291Z,60.10
2019-06-20T06:01:42.729Z,60.60
2019-06-20T06:04:11.435Z,60.40
2019-06-20T06:06:39.939Z,61.10
2019-06-20T06:09:08.395Z,60.00
2019-06-20T06:11:37.100Z,59.80
2019-06-20T06:14:05.860Z,59.60
2019-06-20T06:16:34.286Z,59.80
2019-06-20T06:19:02.734Z,60.20
2019-06-20T06:21:31.554Z,61.00
2019-06-20T06:24:00.073Z,60.10
2019-06-20T06:26:28.515Z,58.70
2019-06-20T06:28:56.967Z,58.80
2019-06-20T06:31:25.649Z,57.90
2019-06-20T06:33:54.351Z,57.10
2019-06-20T06:36:22.822Z,57.90
2019-06-20T06:38:51.335Z,56.30
2019-06-20T06:41:19.758Z,56.60
2019-06-20T06:43:48.523Z,54.10
2019-06-20T06:46:17.215Z,54.20
2019-06-20T06:48:45.915Z,54.50
2019-06-20T06:51:14.597Z,56.40
2019-06-20T06:53:43.042Z,57.60
2019-06-20T06:56:11.477Z,58.90
2019-06-20T06:58:39.939Z,59.80
2019-06-20T07:01:10.312Z,60.70
2019-06-20T07:03:38.884Z,60.60
2019-06-20T07:06:07.354Z,61.70
2019-06-20T07:08:35.859Z,62.90
2019-06-20T07:11:04.661Z,64.20
2019-06-20T07:13:33.273Z,65.60
2019-06-20T07:16:01.743Z,67.20
2019-06-20T07:18:30.244Z,68.40
2019-06-20T07:20:58.743Z,69.60
2019-06-20T07:23:27.433Z,71.40
2019-06-20T07:25:55.885Z,73.00
2019-06-20T07:28:24.388Z,74.40
2019-06-20T07:30:53.103Z,75.20
2019-06-20T07:33:21.790Z,77.40
2019-06-20T07:35:50.504Z,78.90
2019-06-20T07:38:18.935Z,81.20
2019-06-20T07:40:47.381Z,82.10
2019-06-20T07:43:15.829Z,82.90
2019-06-20T07:45:58.414Z,82.30
2019-06-20T07:48:14.490Z,83.10
2019-06-20T07:50:43.013Z,84.90
2019-06-20T07:53:11.468Z,83.70
2019-06-20T07:55:39.971Z,81.40
2019-06-20T07:58:08.658Z,83.60
2019-06-20T08:00:37.366Z,82.90
2019-06-20T08:03:06.068Z,80.90
2019-06-20T08:05:34.778Z,81.20
2019-06-20T08:08:03.235Z,82.30
2019-06-20T08:10:31.691Z,81.30
2019-06-20T08:13:00.134Z,76.30
2019-06-20T08:15:28.577Z,75.60
2019-06-20T08:17:57.261Z,76.60
2019-06-20T08:20:26.712Z,77.00
2019-06-20T08:22:55.486Z,75.10
2019-06-20T08:25:24.269Z,76.20
2019-06-20T08:27:53.376Z,75.30
2019-06-20T08:30:27.619Z,75.90
2019-06-20T08:32:59.158Z,74.00
2019-06-20T08:35:28.909Z,73.40
2019-06-20T08:38:01.036Z,70.00
2019-06-20T08:40:31.744Z,72.00
2019-06-20T08:43:01.957Z,72.80
2019-06-20T08:45:32.898Z,67.00
2019-06-20T08:48:02.686Z,61.30
2019-06-20T08:50:31.400Z,59.60
2019-06-20T08:53:01.440Z,59.40
2019-06-20T08:55:30.387Z,57.60
2019-06-20T08:57:59.604Z,57.40
2019-06-20T09:00:30.438Z,59.10
2019-06-20T09:03:00.190Z,57.60
2019-06-20T09:05:30.843Z,57.00
2019-06-20T09:10:35.635Z,56.00
2019-06-20T09:13:04.413Z,54.80
2019-06-20T09:15:32.846Z,54.90
2019-06-20T09:18:01.305Z,52.10
2019-06-20T09:20:29.997Z,52.60
2019-06-20T09:22:58.970Z,50.00
2019-06-20T09:25:27.758Z,51.30
2019-06-20T09:27:56.533Z,50.70
2019-06-20T09:30:25.108Z,51.50
2019-06-20T09:32:53.937Z,50.00
2019-06-20T09:35:22.549Z,52.30
2019-06-20T09:37:51.970Z,52.80
2019-06-20T09:40:21.573Z,53.60
2019-06-20T09:42:50.248Z,54.00
2019-06-20T09:45:21.828Z,53.30
2019-06-20T09:47:50.987Z,55.10
2019-06-20T09:50:21.367Z,54.60
2019-06-20T09:52:51.421Z,54.80
2019-06-20T09:55:20.286Z,54.60
2019-06-20T09:57:50.276Z,53.40
2019-06-20T10:00:22.209Z,55.90
2019-06-20T10:02:52.121Z,54.70
2019-06-20T10:05:21.147Z,55.60
2019-06-20T10:07:50.310Z,56.60
2019-06-20T10:10:20.714Z,58.10
2019-06-20T10:12:49.703Z,58.90
2019-06-20T10:15:24.181Z,60.70
2019-06-20T10:17:54.390Z,59.70
2019-06-20T10:20:24.265Z,58.90
2019-06-20T10:22:53.404Z,61.30
2019-06-20T10:25:22.521Z,58.80
2019-06-20T10:27:51.452Z,59.10
2019-06-20T10:30:22.034Z,57.80
2019-06-20T10:32:51.020Z,58.70
2019-06-20T10:35:21.300Z,58.00
2019-06-20T10:37:50.385Z,57.00
2019-06-20T10:40:19.710Z,57.10
2019-06-20T10:42:48.394Z,54.60
2019-06-20T10:45:18.633Z,52.40
2019-06-20T10:47:47.594Z,49.90
2019-06-20T10:50:17.839Z,50.00
2019-06-20T10:52:47.857Z,50.60
2019-06-20T10:55:17.637Z,48.60
2019-06-20T10:57:46.775Z,48.20
2019-06-20T11:00:30.166Z,48.70
2019-06-20T11:02:47.342Z,46.40
2019-06-20T11:05:16.015Z,44.20
2019-06-20T11:07:45.649Z,46.80
2019-06-20T11:10:16.340Z,43.30
2019-06-20T11:12:50.238Z,45.80
2019-06-20T11:15:15.583Z,46.80
2019-06-20T11:17:44.278Z,44.60
2019-06-20T11:20:14.613Z,42.70
2019-06-20T11:22:43.308Z,41.10
2019-06-20T11:25:13.722Z,44.50
2019-06-20T11:27:42.725Z,43.60
2019-06-20T11:30:23.099Z,42.70
2019-06-20T11:32:51.560Z,43.60
2019-06-20T11:35:20.251Z,40.60
2019-06-20T11:37:48.721Z,40.20
2019-06-20T11:40:17.657Z,42.10
2019-06-20T11:42:46.926Z,43.00
2019-06-20T11:45:16.320Z,39.30
2019-06-20T11:47:44.777Z,41.00
2019-06-20T11:50:14.780Z,42.10
2019-06-20T11:52:45.632Z,40.40
2019-06-20T11:55:13.770Z,40.60
2019-06-20T11:57:42.476Z,41.20
2019-06-20T12:00:10.974Z,41.80
2019-06-20T12:02:41.110Z,42.10
2019-06-20T12:05:10.751Z,40.60
2019-06-20T12:07:40.115Z,40.90
2019-06-20T12:10:10.749Z,44.70
2019-06-20T12:12:40.789Z,44.40
2019-06-20T12:15:09.488Z,40.70
2019-06-20T12:17:39.342Z,40.60
2019-06-20T12:20:11.458Z,40.60
2019-06-20T12:22:41.296Z,40.00
2019-06-20T12:25:11.020Z,40.10
2019-06-20T12:27:40.655Z,40.20
2019-06-20T12:30:11.192Z,39.70
2019-06-20T12:32:40.633Z,40.10
2019-06-20T12:35:09.798Z,40.50
2019-06-20T12:37:40.359Z,38.90
2019-06-20T12:40:09.255Z,39.50
2019-06-20T12:42:39.321Z,40.80
2019-06-20T12:45:10.118Z,41.10
2019-06-20T12:47:40.163Z,41.50
2019-06-20T12:50:10.028Z,40.90
2019-06-20T12:52:39.572Z,39.20
2019-06-20T12:55:10.968Z,38.90
2019-06-20T12:57:40.446Z,41.10
2019-06-20T13:00:11.406Z,38.30
2019-06-20T13:02:40.490Z,39.30
2019-06-20T13:05:10.286Z,39.60
2019-06-20T13:07:40.531Z,42.40
2019-06-20T13:10:10.001Z,43.20
2019-06-20T13:12:40.692Z,44.40
2019-06-20T13:15:08.917Z,45.50
2019-06-20T13:17:39.303Z,45.90
2019-06-20T13:20:08.864Z,46.10
2019-06-20T13:22:37.813Z,45.00
2019-06-20T13:25:07.819Z,46.80
2019-06-20T13:27:38.120Z,45.50
2019-06-20T13:30:08.362Z,43.10
2019-06-20T13:32:38.466Z,44.20
2019-06-20T13:35:07.931Z,43.80
2019-06-20T13:37:36.357Z,42.00
2019-06-20T13:40:07.889Z,41.20
2019-06-20T13:42:36.339Z,41.50
2019-06-20T13:45:07.716Z,44.20
2019-06-20T13:47:36.486Z,45.00
2019-06-20T13:50:06.949Z,45.20
2019-06-20T13:52:38.244Z,47.00
2019-06-20T13:55:06.935Z,46.40
2019-06-20T13:57:35.631Z,44.80
2019-06-20T14:00:08.852Z,46.20
2019-06-20T14:02:38.063Z,45.90
2019-06-20T14:05:06.885Z,45.00
2019-06-20T14:07:35.572Z,46.20
2019-06-20T14:10:08.770Z,47.70
2019-06-20T14:12:37.475Z,45.50
2019-06-20T14:15:07.071Z,45.70
2019-06-20T14:17:35.577Z,46.50
2019-06-20T14:20:08.338Z,45.90
2019-06-20T14:22:36.877Z,45.70
2019-06-20T14:25:08.769Z,46.80
2019-06-20T14:27:37.199Z,46.80
2019-06-20T14:30:08.225Z,47.00
2019-06-20T14:32:36.654Z,48.00
2019-06-20T14:35:05.977Z,47.60
2019-06-20T14:37:34.670Z,47.30
2019-06-20T14:40:04.758Z,46.10
2019-06-20T14:42:33.189Z,45.70
2019-06-20T14:45:01.899Z,46.90
2019-06-20T14:47:30.582Z,47.00
2019-06-20T14:49:59.295Z,48.90
2019-06-20T14:52:27.747Z,52.00
2019-06-20T14:54:56.183Z,55.70
2019-06-20T14:57:24.614Z,56.80
2019-06-20T14:59:54.346Z,59.70
2019-06-20T15:02:34.594Z,62.00
2019-06-20T15:04:54.371Z,60.70
2019-06-20T15:07:22.888Z,63.70
2019-06-20T15:09:51.514Z,66.10
2019-06-20T15:12:20.279Z,66.40
2019-06-20T15:14:49.802Z,68.40
2019-06-20T15:17:19.151Z,71.50
2019-06-20T15:19:47.856Z,74.20
2019-06-20T15:22:17.719Z,76.00
2019-06-20T15:24:48.511Z,74.30
2019-06-20T15:27:16.324Z,77.20
2019-06-20T15:29:47.049Z,75.80
2019-06-20T15:32:15.185Z,77.20
2019-06-20T15:34:43.700Z,75.80
2019-06-20T15:37:12.158Z,77.60
2019-06-20T15:39:40.672Z,77.70
2019-06-20T15:42:09.111Z,77.60
2019-06-20T15:44:37.546Z,77.90
2019-06-20T15:47:06.242Z,77.10
2019-06-20T15:49:34.696Z,77.60
2019-06-20T15:52:03.143Z,72.70
2019-06-20T15:54:31.653Z,70.60
2019-06-20T15:57:00.409Z,69.30
2019-06-20T15:59:29.289Z,69.90
2019-06-20T16:01:57.713Z,69.30
2019-06-20T16:04:26.167Z,68.70
2019-06-20T16:06:54.601Z,69.50
2019-06-20T16:09:23.051Z,69.30
2019-06-20T16:11:51.515Z,70.00
2019-06-20T16:14:20.306Z,69.30
2019-06-20T16:16:48.796Z,68.20
2019-06-20T16:19:17.311Z,67.30
2019-06-20T16:21:46.170Z,66.50
2019-06-20T16:24:14.640Z,64.30
2019-06-20T16:26:43.313Z,63.50
2019-06-20T16:29:12.018Z,62.80
2019-06-20T16:31:40.720Z,62.70
2019-06-20T16:34:09.407Z,61.20
2019-06-20T16:36:37.833Z,59.50
2019-06-20T16:39:08.449Z,58.40
2019-06-20T16:41:37.116Z,56.70
2019-06-20T16:44:06.034Z,57.20
2019-06-20T16:46:34.479Z,54.10
2019-06-20T16:49:03.203Z,53.70
2019-06-20T16:51:31.713Z,55.00
2019-06-20T16:54:00.457Z,56.20
2019-06-20T16:56:29.781Z,56.40
2019-06-20T16:58:58.226Z,54.20
2019-06-20T17:01:26.676Z,50.40
2019-06-20T17:03:55.110Z,52.50
2019-06-20T17:06:23.826Z,50.50
2019-06-20T17:08:52.252Z,50.40
2019-06-20T17:11:20.706Z,49.70
2019-06-20T17:13:49.147Z,50.50
2019-06-20T17:16:17.839Z,50.40
2019-06-20T17:18:46.278Z,51.80
2019-06-20T17:21:15.069Z,52.10
2019-06-20T17:23:43.753Z,51.50
2019-06-20T17:26:12.459Z,51.80
2019-06-20T17:28:41.229Z,52.00
2019-06-20T17:31:09.680Z,52.50
2019-06-20T17:33:39.010Z,52.50
2019-06-20T17:36:17.783Z,53.60
2019-06-20T17:38:37.615Z,53.10
2019-06-20T17:41:06.071Z,52.50
2019-06-20T17:43:34.745Z,53.70
2019-06-20T17:46:03.599Z,54.20
2019-06-20T17:48:32.026Z,53.80
2019-06-20T17:51:00.563Z,54.10
2019-06-20T17:53:29.084Z,54.60
2019-06-20T17:55:57.788Z,53.50
2019-06-20T17:58:26.684Z,54.30
2019-06-20T18:00:55.468Z,54.30
2019-06-20T18:03:23.911Z,53.60
2019-06-20T18:05:52.365Z,55.50
2019-06-20T18:08:21.055Z,56.50
2019-06-20T18:10:50.115Z,56.30
2019-06-20T18:13:18.546Z,56.70
2019-06-20T18:15:47.000Z,57.40
2019-06-20T18:18:15.443Z,56.80
2019-06-20T18:20:43.904Z,57.10
2019-06-20T18:23:12.599Z,56.80
2019-06-20T18:25:41.141Z,56.70
2019-06-20T18:28:09.628Z,56.30
2019-06-20T18:30:43.014Z,56.00
2019-06-20T18:33:13.286Z,55.10
2019-06-20T18:35:41.869Z,55.50
2019-06-20T18:38:10.317Z,55.10
2019-06-20T18:40:39.011Z,55.30
2019-06-20T18:43:07.715Z,56.00
2019-06-20T18:45:36.404Z,56.40
2019-06-20T18:48:05.089Z,56.40
2019-06-20T18:50:33.791Z,57.60
2019-06-20T18:53:02.483Z,58.90
2019-06-20T18:55:30.936Z,58.40
2019-06-20T18:57:59.370Z,59.30
2019-06-20T19:00:34.487Z,59.90
2019-06-20T19:02:58.395Z,61.00
2019-06-20T19:05:27.165Z,62.00
2019-06-20T19:07:55.597Z,63.60
2019-06-20T19:10:25.506Z,66.60
2019-06-20T19:12:54.860Z,66.60
2019-06-20T19:15:23.863Z,66.80
2019-06-20T19:17:52.336Z,66.50
2019-06-20T19:20:20.996Z,66.20
2019-06-20T19:22:49.433Z,66.10
2019-06-20T19:25:18.053Z,67.70
2019-06-20T19:27:47.151Z,69.00
2019-06-20T19:30:16.773Z,69.40
2019-06-20T19:32:45.457Z,71.00
2019-06-20T19:35:14.510Z,72.80
2019-06-20T19:37:42.943Z,73.60
2019-06-20T19:40:13.666Z,74.60
2019-06-20T19:42:42.162Z,75.50
2019-06-20T19:45:13.415Z,75.20
2019-06-20T19:47:42.370Z,75.10
2019-06-20T19:50:12.415Z,75.90
2019-06-20T19:52:41.168Z,76.70
2019-06-20T19:55:10.920Z,76.50
2019-06-20T19:57:39.417Z,76.30
2019-06-20T20:00:11.277Z,76.00
2019-06-20T20:02:39.782Z,75.80
2019-06-20T20:05:18.627Z,76.30
2019-06-20T20:07:39.249Z,76.50
2019-06-20T20:10:09.486Z,77.00
2019-06-20T20:12:38.189Z,77.70
2019-06-20T20:15:09.801Z,76.90
2019-06-20T20:17:38.237Z,76.70
2019-06-20T20:20:07.778Z,77.30
2019-06-20T20:22:36.212Z,78.00
2019-06-20T20:25:09.034Z,78.70
2019-06-20T20:27:37.714Z,79.50
2019-06-20T20:30:10.683Z,80.20
2019-06-20T20:32:39.346Z,79.90
2019-06-20T20:35:07.801Z,79.90
2019-06-20T20:37:36.635Z,80.50
2019-06-20T20:40:11.054Z,80.50
2019-06-20T20:42:39.725Z,80.50
2019-06-20T20:45:09.618Z,80.80
2019-06-20T20:47:38.051Z,81.30
2019-06-20T20:50:07.809Z,80.60
2019-06-20T20:52:36.238Z,80.40
2019-06-20T20:55:10.343Z,81.20
2019-06-20T20:57:38.009Z,81.20
2019-06-20T21:00:12.242Z,80.20
2019-06-20T21:02:40.930Z,80.60
2019-06-20T21:05:09.548Z,81.00
2019-06-20T21:07:39.236Z,81.30
2019-06-20T21:10:08.498Z,81.80
2019-06-20T21:12:36.931Z,82.80
2019-06-20T21:15:07.338Z,83.10
2019-06-20T21:17:36.011Z,83.00
2019-06-20T21:20:09.150Z,83.00
2019-06-20T21:22:37.573Z,83.10
2019-06-20T21:25:07.119Z,82.90
2019-06-20T21:27:35.808Z,83.40
2019-06-20T21:30:06.563Z,83.50
2019-06-20T21:32:34.998Z,84.30
2019-06-20T21:35:04.891Z,85.00
2019-06-20T21:37:33.332Z,83.50
2019-06-20T21:40:01.771Z,83.00
2019-06-20T21:42:30.214Z,82.90
2019-06-20T21:44:58.662Z,83.10
2019-06-20T21:47:27.351Z,83.00
2019-06-20T21:49:55.794Z,82.70
2019-06-20T21:52:24.499Z,83.10
2019-06-20T21:54:54.176Z,83.10
2019-06-20T21:57:22.877Z,83.60
2019-06-20T21:59:51.313Z,84.80
2019-06-20T22:02:19.780Z,85.50
2019-06-20T22:04:54.500Z,84.00
2019-06-20T22:07:18.662Z,83.70
2019-06-20T22:09:47.415Z,83.60
2019-06-20T22:12:16.113Z,83.70
2019-06-20T22:14:44.546Z,83.60
2019-06-20T22:17:13.305Z,83.70
2019-06-20T22:19:41.737Z,84.20
2019-06-20T22:22:10.442Z,84.70
2019-06-20T22:24:38.865Z,85.30
2019-06-20T22:27:07.309Z,86.20
2019-06-20T22:29:35.745Z,86.60
2019-06-20T22:32:04.186Z,86.60
2019-06-20T22:34:32.863Z,87.90
2019-06-20T22:37:01.319Z,88.90
2019-06-20T22:39:29.821Z,89.10
2019-06-20T22:41:58.272Z,88.90
2019-06-20T22:44:26.705Z,88.40
2019-06-20T22:46:55.145Z,87.30
2019-06-20T22:49:23.576Z,87.10
2019-06-20T22:51:52.025Z,86.70
2019-06-20T22:54:20.448Z,87.10
2019-06-20T22:56:48.897Z,87.40
2019-06-20T22:59:17.333Z,87.80
2019-06-20T23:01:45.778Z,89.10
2019-06-20T23:04:14.458Z,90.10
2019-06-20T23:06:55.292Z,90.50
2019-06-20T23:09:13.077Z,90.60
2019-06-20T23:11:41.519Z,90.90
2019-06-20T23:14:09.961Z,91.30
2019-06-20T23:16:38.469Z,91.40
2019-06-20T23:19:07.174Z,91.70
2019-06-20T23:21:35.614Z,92.10
2019-06-20T23:24:04.309Z,91.50
2019-06-20T23:26:32.753Z,91.00
2019-06-20T23:29:19.312Z,91.10
2019-06-20T23:31:47.821Z,92.00
2019-06-20T23:34:16.278Z,91.80
2019-06-20T23:36:44.714Z,92.40
2019-06-20T23:39:13.263Z,92.00
2019-06-20T23:41:41.832Z,91.00
2019-06-20T23:44:10.421Z,90.50
2019-06-20T23:46:39.078Z,86.90
2019-06-20T23:49:07.753Z,89.00
2019-06-20T23:51:38.335Z,88.70
2019-06-20T23:54:07.091Z,90.60
2019-06-20T23:56:35.688Z,89.50
2019-06-20T23:59:04.389Z,90.00
